Time;durP1;ratioP1;P1;durP2;ratioP2;P2;SDS_P1;SDS_P2;PMS_P1;PMS_P2;Temp;Humidity;BMP_temperature;BMP_pressure;BME280_temperature;BME280_humidity;BME280_pressure;Samples;Min_cycle;Max_cycle;Signal;HPM_P1;HPM_P2
2022/02/03 00:00:01;;;;;;;10.97;1.70;;;1.30;99.90;;;;;;4960141;28;20476;-81
2022/02/03 00:02:36;;;;;;;;;;;1.30;99.90;;;;;;4958544;29;20190;-81
2022/02/03 00:05:08;;;;;;;3.03;0.80;;;1.20;99.90;;;;;;4959942;29;19926;-80
2022/02/03 00:07:46;;;;;;;6.03;2.37;;;1.20;99.90;;;;;;4961470;28;20059;-80
2022/02/03 00:24:31;;;;;;;5.23;1.97;;;0.90;99.90;;;;;;4962401;29;20066;-83
2022/02/03 00:27:05;;;;;;;6.73;1.40;;;0.90;99.90;;;;;;4958777;28;20058;-81
2022/02/03 00:29:50;;;;;;;4.27;3.53;;;0.80;99.90;;;;;;4957438;28;20063;-81
2022/02/03 00:32:40;;;;;;;3.90;0.87;;;0.80;99.90;;;;;;4957616;28;20063;-81
2022/02/03 00:35:24;;;;;;;4.03;1.67;;;0.80;99.90;;;;;;4957753;29;20062;-81
2022/02/03 00:38:18;;;;;;;12.97;1.47;;;0.80;99.90;;;;;;4957051;29;20063;-83
2022/02/03 00:49:03;;;;;;;1.73;1.63;;;0.80;99.90;;;;;;4956904;29;20066;-81
2022/02/03 00:51:35;;;;;;;3.33;1.47;;;0.90;99.90;;;;;;4957290;28;20063;-82
2022/02/03 00:54:01;;;;;;;7.77;2.00;;;1.00;99.90;;;;;;4957649;28;20063;-81
2022/02/03 00:56:39;;;;;;;3.37;1.90;;;1.00;99.90;;;;;;4957911;29;20059;-82
2022/02/03 00:59:08;;;;;;;8.97;2.00;;;0.90;99.90;;;;;;4958010;29;21007;-81
2022/02/03 01:01:37;;;;;;;10.50;2.17;;;0.90;99.90;;;;;;4957613;29;20059;-82
2022/02/03 01:04:06;;;;;;;3.03;0.93;;;0.90;99.90;;;;;;4957441;28;20059;-82
2022/02/03 01:06:36;;;;;;;18.17;3.23;;;0.80;99.90;;;;;;4940321;28;20056;-82
2022/02/03 01:09:04;;;;;;;8.63;2.13;;;0.80;99.90;;;;;;4958038;28;20059;-82
2022/02/03 01:14:22;;;;;;;4.37;1.20;;;0.70;99.90;;;;;;4967259;28;20047;-82
2022/02/03 01:17:06;;;;;;;1.08;0.45;;;0.70;99.90;;;;;;4960182;28;20138;-83
2022/02/03 01:20:16;;;;;;;1.93;1.00;;;0.70;99.90;;;;;;4960677;28;20055;-81
2022/02/03 01:34:09;;;;;;;11.23;2.47;;;0.50;99.90;;;;;;4957213;29;20066;-82
2022/02/03 01:37:12;;;;;;;1.47;1.33;;;0.50;99.90;;;;;;4957597;28;20051;-82
2022/02/03 01:45:21;;;;;;;10.70;4.13;;;0.40;99.90;;;;;;4957043;28;20050;-81
2022/02/03 01:47:57;;;;;;;2.27;2.07;;;0.30;99.90;;;;;;4957896;29;20090;-82
2022/02/03 01:53:21;;;;;;;8.60;1.53;;;0.50;99.90;;;;;;4923615;28;20069;-81
2022/02/03 01:55:54;;;;;;;5.63;2.20;;;0.50;99.90;;;;;;4958630;29;20059;-81
2022/02/03 01:58:29;;;;;;;6.43;1.80;;;0.60;99.90;;;;;;4950619;28;20206;-81
2022/02/03 02:01:00;;;;;;;0.60;0.60;;;0.60;99.90;;;;;;4952458;29;20054;-81
2022/02/03 02:03:38;;;;;;;16.20;2.97;;;0.70;99.90;;;;;;4955697;28;20058;-82
2022/02/03 02:06:24;;;;;;;7.83;1.47;;;0.70;99.90;;;;;;4950280;29;20141;-82
2022/02/03 02:09:01;;;;;;;4.90;1.07;;;0.70;99.90;;;;;;4950939;29;20047;-81
2022/02/03 02:11:45;;;;;;;13.13;2.73;;;0.80;99.90;;;;;;4948451;29;20089;-81
2022/02/03 02:14:46;;;;;;;8.63;1.70;;;0.90;99.90;;;;;;4950289;28;20059;-81
2022/02/03 02:40:08;;;;;;;6.47;1.53;;;1.00;99.90;;;;;;4940785;29;20051;-82
2022/02/03 02:42:45;;;;;;;12.80;2.27;;;1.10;99.90;;;;;;4956901;29;20142;-81
2022/02/03 02:45:15;;;;;;;6.07;1.67;;;1.00;99.90;;;;;;4955582;29;20478;-82
2022/02/03 02:48:05;;;;;;;1.07;1.00;;;1.00;99.90;;;;;;4955210;28;20137;-82
2022/02/03 02:50:45;;;;;;;7.13;2.37;;;1.10;99.90;;;;;;4955292;28;20059;-81
2022/02/03 02:53:26;;;;;;;2.97;0.87;;;1.00;99.90;;;;;;4956116;28;20122;-82
2022/02/03 02:56:13;;;;;;;1.47;1.30;;;1.10;99.90;;;;;;4955121;28;20055;-81
2022/02/03 02:59:09;;;;;;;7.73;2.77;;;1.10;99.90;;;;;;4937207;29;20062;-82
2022/02/03 03:28:54;;;;;;;5.00;2.17;;;1.00;99.90;;;;;;4956717;29;20054;-82
2022/02/03 03:29:51;;;;;;;7.83;1.60;;;1.20;99.90;;;;;;4956610;28;20524;-82
2022/02/03 03:32:36;;;;;;;5.73;2.13;;;1.10;99.90;;;;;;4956762;28;20039;-80
2022/02/03 03:35:18;;;;;;;10.93;2.03;;;1.10;99.90;;;;;;4939071;29;20051;-82
2022/02/03 03:37:48;;;;;;;;;;;1.20;99.90;;;;;;4956955;29;20059;-81
2022/02/03 03:40:18;;;;;;;2.67;1.80;;;1.10;99.90;;;;;;4955903;29;19922;-82
2022/02/03 03:42:51;;;;;;;6.50;1.30;;;1.20;99.90;;;;;;4966893;28;20035;-80
2022/02/03 03:45:20;;;;;;;9.53;2.53;;;1.20;99.90;;;;;;4975120;29;20062;-81
2022/02/03 03:47:48;;;;;;;2.23;1.00;;;1.20;99.90;;;;;;4967728;29;20062;-82
2022/02/03 03:50:17;;;;;;;3.60;1.43;;;1.20;99.90;;;;;;4964140;28;20055;-81
2022/02/03 03:52:53;;;;;;;11.77;2.20;;;1.20;99.90;;;;;;4961976;29;20417;-82
2022/02/03 03:55:46;;;;;;;2.60;1.37;;;1.20;99.90;;;;;;4959914;29;20107;-82
2022/02/03 03:58:39;;;;;;;1.67;1.37;;;1.20;99.90;;;;;;4959300;29;20066;-81
2022/02/03 04:30:27;;;;;;;7.63;2.33;;;1.40;99.90;;;;;;4954246;29;20078;-81
2022/02/03 04:39:39;;;;;;;1.50;0.73;;;1.50;99.90;;;;;;4954029;29;20047;-82
2022/02/03 04:46:11;;;;;;;5.90;1.40;;;1.60;99.90;;;;;;4907657;29;20048;-81
2022/02/03 04:52:19;;;;;;;7.00;1.03;;;1.60;99.90;;;;;;4957895;29;20066;-86
2022/02/03 04:55:21;;;;;;;8.80;1.20;;;1.60;99.90;;;;;;4949692;28;20413;-83
2022/02/03 05:01:16;;;;;;;6.30;0.77;;;1.60;99.90;;;;;;4913340;28;20083;-81
2022/02/03 05:04:12;;;;;;;0.70;0.57;;;1.50;99.90;;;;;;4955429;28;20513;-82
2022/02/03 05:07:05;;;;;;;11.93;1.93;;;1.50;99.90;;;;;;4955848;28;20059;-79
2022/02/03 05:10:02;;;;;;;5.30;0.90;;;1.50;99.90;;;;;;4942884;28;20484;-81
2022/02/03 05:12:53;;;;;;;14.83;3.53;;;1.50;99.90;;;;;;4957687;28;20051;-83
2022/02/03 05:22:11;;;;;;;14.80;2.80;;;1.30;99.90;;;;;;4956319;28;20414;-82
2022/02/03 05:34:36;;;;;;;14.50;1.33;;;1.40;99.90;;;;;;4956039;28;20626;-84
2022/02/03 06:02:49;;;;;;;5.60;2.00;;;1.50;99.90;;;;;;4955463;28;20141;-86
2022/02/03 06:05:20;;;;;;;9.87;3.10;;;1.40;99.90;;;;;;4958413;28;20053;-88
2022/02/03 06:08:01;;;;;;;13.45;2.63;;;1.50;99.90;;;;;;4955493;28;20055;-85
2022/02/03 06:13:16;;;;;;;11.20;2.97;;;1.50;99.90;;;;;;4959429;28;20062;-81
2022/02/03 06:15:52;;;;;;;3.77;1.83;;;1.50;99.90;;;;;;4956654;28;20059;-80
2022/02/03 06:29:15;;;;;;;10.20;4.17;;;1.50;99.90;;;;;;4954485;28;19930;-81
2022/02/03 06:31:42;;;;;;;4.53;2.03;;;1.50;99.90;;;;;;4956242;29;20051;-77
2022/02/03 06:34:09;;;;;;;4.17;2.13;;;1.50;99.90;;;;;;4954140;28;20124;-83
2022/02/03 06:36:37;;;;;;;6.27;2.60;;;1.60;99.90;;;;;;4959015;28;20079;-82
2022/02/03 06:39:11;;;;;;;9.70;2.13;;;1.60;99.90;;;;;;4955443;28;20082;-84
2022/02/03 06:41:37;;;;;;;3.90;1.77;;;1.60;99.90;;;;;;4954543;28;20054;-83
2022/02/03 06:44:04;;;;;;;14.93;2.20;;;1.70;99.90;;;;;;4964994;28;20046;-89
2022/02/03 06:46:32;;;;;;;10.37;1.70;;;1.70;99.90;;;;;;4960245;28;20386;-80
2022/02/03 06:49:09;;;;;;;5.90;1.63;;;1.70;99.90;;;;;;4952582;28;20066;-81
2022/02/03 06:51:39;;;;;;;5.33;2.03;;;1.80;99.90;;;;;;4954442;28;20059;-80
2022/02/03 06:54:16;;;;;;;3.90;1.93;;;1.80;99.90;;;;;;4950761;28;20142;-82
2022/02/03 06:56:50;;;;;;;4.17;1.40;;;1.80;99.90;;;;;;4956244;28;20063;-85
2022/02/03 06:59:22;;;;;;;5.93;1.30;;;1.80;99.90;;;;;;4954328;28;20409;-88
2022/02/03 07:01:50;;;;;;;5.70;1.87;;;1.80;99.90;;;;;;4966807;28;20075;-89
2022/02/03 07:04:20;;;;;;;12.60;1.97;;;1.80;99.90;;;;;;4956050;28;20047;-88
2022/02/03 07:06:46;;;;;;;4.43;2.13;;;1.80;99.90;;;;;;4957160;28;20156;-88
2022/02/03 07:09:13;;;;;;;2.63;1.67;;;1.80;99.90;;;;;;4957111;28;20067;-90
2022/02/03 07:11:40;;;;;;;8.13;2.77;;;1.90;99.90;;;;;;4955192;28;20059;-88
2022/02/03 07:14:08;;;;;;;8.17;1.63;;;1.90;99.90;;;;;;4950790;28;20070;-85
2022/02/03 07:16:37;;;;;;;1.93;1.23;;;1.90;99.90;;;;;;4952944;28;20067;-81
2022/02/03 07:19:04;;;;;;;2.47;1.90;;;1.90;99.90;;;;;;4935918;28;20067;-80
2022/02/03 07:21:30;;;;;;;3.40;1.43;;;2.00;99.90;;;;;;4952601;28;20059;-79
2022/02/03 07:23:56;;;;;;;14.70;2.23;;;2.00;99.90;;;;;;4952595;28;20051;-80
2022/02/03 07:26:22;;;;;;;4.50;1.90;;;2.00;99.90;;;;;;4952577;28;20066;-79
2022/02/03 07:28:48;;;;;;;14.20;2.53;;;2.10;99.90;;;;;;4948604;28;20134;-80
2022/02/03 07:31:14;;;;;;;6.07;1.83;;;2.20;99.90;;;;;;4949593;28;20050;-86
2022/02/03 07:33:41;;;;;;;10.40;3.23;;;2.20;99.90;;;;;;4936945;29;20409;-84
2022/02/03 07:36:09;;;;;;;4.93;1.20;;;2.30;99.90;;;;;;4952725;28;20442;-83
2022/02/03 07:38:37;;;;;;;7.53;1.67;;;2.40;99.90;;;;;;4955173;28;20110;-84
2022/02/03 07:41:03;;;;;;;1.27;1.17;;;2.50;99.90;;;;;;4954887;28;20066;-86
2022/02/03 07:43:29;;;;;;;3.83;1.27;;;2.40;99.90;;;;;;4959480;28;20058;-89
2022/02/03 07:45:57;;;;;;;7.40;1.83;;;2.40;99.90;;;;;;4948499;28;20080;-87
2022/02/03 07:48:28;;;;;;;8.03;1.50;;;2.50;99.90;;;;;;4940571;29;20146;-90
2022/02/03 07:50:55;;;;;;;3.20;1.80;;;2.70;99.90;;;;;;5128847;23;20066;-86
2022/02/03 07:53:22;;;;;;;3.77;1.10;;;2.80;99.90;;;;;;4952672;29;20051;-83
2022/02/03 07:55:48;;;;;;;6.03;1.80;;;2.90;99.90;;;;;;4952931;29;20376;-81
2022/02/03 07:58:14;;;;;;;12.10;2.00;;;2.90;99.90;;;;;;4952952;29;20051;-82
2022/02/03 08:00:42;;;;;;;3.03;1.60;;;3.00;99.90;;;;;;4954437;28;20059;-89
2022/02/03 08:03:12;;;;;;;4.30;1.10;;;3.10;99.90;;;;;;4953795;29;20137;-90
2022/02/03 08:05:39;;;;;;;21.17;2.67;;;3.20;99.90;;;;;;4953455;29;20048;-88
2022/02/03 08:08:14;;;;;;;5.30;1.73;;;3.20;99.90;;;;;;4954759;28;20430;-88
2022/02/03 08:10:44;;;;;;;2.50;1.23;;;3.10;99.90;;;;;;4952838;29;20125;-87
2022/02/03 08:13:16;;;;;;;3.83;1.20;;;3.20;99.90;;;;;;4951969;29;20498;-83
2022/02/03 08:15:43;;;;;;;6.60;1.63;;;3.20;99.90;;;;;;4953540;29;20102;-82
2022/02/03 08:18:14;;;;;;;1.53;1.43;;;3.20;99.90;;;;;;4952221;28;20066;-82
2022/02/03 08:20:48;;;;;;;5.70;2.00;;;3.20;99.90;;;;;;4951403;29;20382;-81
2022/02/03 08:23:38;;;;;;;6.30;1.60;;;3.20;99.90;;;;;;4959735;28;20043;-80
2022/02/03 08:26:11;;;;;;;2.17;1.97;;;3.20;99.90;;;;;;4957092;28;20082;-82
2022/02/03 08:28:54;;;;;;;3.70;1.27;;;3.30;99.90;;;;;;4954687;28;20138;-79
2022/02/03 08:31:23;;;;;;;6.60;1.57;;;3.40;99.90;;;;;;4954064;29;20059;-80
2022/02/03 08:33:52;;;;;;;5.60;1.70;;;3.60;99.90;;;;;;4955749;29;20052;-86
2022/02/03 08:36:19;;;;;;;7.87;3.10;;;3.80;99.90;;;;;;4965153;28;20046;-86
2022/02/03 08:38:54;;;;;;;5.03;1.67;;;4.20;99.90;;;;;;4965000;28;20569;-90
2022/02/03 08:41:24;;;;;;;1.13;1.00;;;4.60;99.90;;;;;;4958087;28;20124;-86
2022/02/03 08:43:51;;;;;;;4.47;1.37;;;5.10;99.90;;;;;;4957533;28;20138;-92
2022/02/03 08:46:22;;;;;;;6.27;1.50;;;5.50;99.90;;;;;;4963092;29;20051;-90
2022/02/03 08:48:51;;;;;;;4.78;1.80;;;6.10;99.90;;;;;;4956110;28;20047;-87
2022/02/03 08:51:20;;;;;;;4.43;1.73;;;6.40;99.90;;;;;;4958154;29;20086;-87
2022/02/03 08:53:50;;;;;;;3.07;1.30;;;6.80;99.90;;;;;;4963112;28;20522;-86
2022/02/03 08:56:26;;;;;;;3.47;2.60;;;6.40;99.90;;;;;;4959225;29;20078;-86
2022/02/03 09:52:11;;;;;;;5.43;2.00;;;6.00;99.90;;;;;;4963594;28;20069;-86
2022/02/03 09:54:52;;;;;;;8.40;2.67;;;5.70;99.90;;;;;;4956054;29;20059;-80
2022/02/03 09:57:32;;;;;;;;;;;6.00;99.90;;;;;;4952362;28;20102;-86
2022/02/03 10:00:35;;;;;;;6.37;2.90;;;6.50;99.90;;;;;;4963668;28;19922;-90
2022/02/03 10:03:08;;;;;;;10.20;2.47;;;7.00;99.90;;;;;;4950489;29;20091;-89
2022/02/03 10:05:55;;;;;;;5.33;2.33;;;7.30;99.90;;;;;;4966378;28;20079;-91
2022/02/03 10:08:21;;;;;;;5.77;3.30;;;7.20;99.90;;;;;;4963998;29;20066;-85
2022/02/03 10:10:48;;;;;;;5.53;2.37;;;7.20;99.90;;;;;;4964864;28;20063;-88
2022/02/03 10:13:20;;;;;;;5.73;1.97;;;6.70;99.90;;;;;;4963681;29;20379;-86
2022/02/03 10:16:01;;;;;;;6.73;2.20;;;6.40;99.90;;;;;;4964590;28;20055;-88
2022/02/03 10:18:28;;;;;;;5.30;2.23;;;6.50;99.90;;;;;;4963305;28;20465;-85
2022/02/03 10:20:57;;;;;;;8.50;2.73;;;6.40;99.90;;;;;;4953666;28;20059;-79
2022/02/03 10:23:25;;;;;;;3.83;2.37;;;6.30;99.90;;;;;;4953152;28;20035;-83
2022/02/03 10:25:56;;;;;;;5.27;2.57;;;6.40;99.90;;;;;;4951116;28;20047;-81
2022/02/03 10:28:24;;;;;;;10.07;2.20;;;6.30;99.90;;;;;;4931523;29;20131;-82
2022/02/03 10:30:54;;;;;;;7.53;2.90;;;6.00;99.90;;;;;;4952791;28;21702;-82
2022/02/03 10:33:30;;;;;;;6.57;2.70;;;6.00;99.90;;;;;;4951945;28;20146;-81
2022/02/03 10:36:02;;;;;;;4.63;1.77;;;6.10;99.90;;;;;;4952471;28;20145;-82
2022/02/03 10:38:49;;;;;;;;;;;6.00;99.90;;;;;;4950220;29;20437;-81
2022/02/03 10:47:04;;;;;;;3.43;2.37;;;6.00;99.90;;;;;;4959189;28;20528;-87
2022/02/03 10:50:06;;;;;;;5.50;1.87;;;5.90;99.90;;;;;;4957903;29;20147;-80
2022/02/03 10:52:54;;;;;;;3.42;2.63;;;5.90;99.90;;;;;;4959299;28;20055;-81
2022/02/03 10:58:22;;;;;;;5.60;2.80;;;5.90;99.90;;;;;;4951019;29;20374;-89
2022/02/03 11:01:12;;;;;;;5.67;2.50;;;5.90;99.90;;;;;;4957309;28;20051;-86
2022/02/03 11:03:58;;;;;;;7.37;4.17;;;5.90;99.90;;;;;;4943157;29;20237;-83
2022/02/03 11:06:29;;;;;;;3.70;2.40;;;5.80;99.90;;;;;;4953030;29;20589;-83
2022/02/03 11:09:07;;;;;;;9.88;3.05;;;6.00;99.90;;;;;;4958419;29;20047;-83
2022/02/03 11:11:37;;;;;;;4.40;2.77;;;5.90;99.90;;;;;;4958323;29;20063;-83
2022/02/03 11:14:04;;;;;;;6.33;2.57;;;5.90;99.90;;;;;;4958181;28;20055;-86
2022/02/03 11:16:36;;;;;;;10.03;2.50;;;5.90;99.90;;;;;;4959836;29;20043;-83
2022/02/03 11:19:05;;;;;;;14.07;3.63;;;5.90;99.90;;;;;;4958433;29;20074;-83
2022/02/03 11:21:33;;;;;;;7.33;3.10;;;5.90;99.90;;;;;;4954615;29;20055;-83
2022/02/03 11:24:05;;;;;;;5.97;3.50;;;5.80;99.90;;;;;;4956741;29;20050;-83
2022/02/03 11:26:41;;;;;;;6.43;3.03;;;5.80;99.90;;;;;;4960666;29;20055;-83
2022/02/03 11:29:35;;;;;;;7.20;3.53;;;5.90;99.90;;;;;;4957481;29;20474;-82
2022/02/03 11:38:40;;;;;;;7.53;3.67;;;5.60;99.90;;;;;;4955305;29;19954;-85
2022/02/03 11:47:38;;;;;;;5.93;3.83;;;5.60;99.90;;;;;;4958688;28;20071;-85
2022/02/03 11:50:33;;;;;;;5.27;3.73;;;5.60;99.90;;;;;;4969029;28;20043;-89
2022/02/03 12:01:41;;;;;;;;;;;5.50;99.90;;;;;;4965334;28;20057;-86
2022/02/03 12:16:02;;;;;;;9.50;4.50;;;5.60;99.90;;;;;;4918264;29;20074;-82
2022/02/03 12:19:16;;;;;;;6.47;3.77;;;5.70;99.90;;;;;;4989293;23;20070;-89
2022/02/03 12:22:04;;;;;;;13.13;4.67;;;5.70;99.90;;;;;;5012622;23;21170;-81
2022/02/03 12:24:42;;;;;;;7.80;4.33;;;5.60;99.90;;;;;;4947488;29;20111;-82
2022/02/03 12:27:28;;;;;;;5.90;4.83;;;5.60;99.90;;;;;;4946354;28;20102;-84
2022/02/03 12:30:02;;;;;;;13.33;5.87;;;5.60;99.90;;;;;;4949368;29;20048;-83
2022/02/03 12:33:02;;;;;;;8.30;4.87;;;5.60;99.90;;;;;;4954593;28;20066;-86
2022/02/03 12:38:22;;;;;;;10.63;5.50;;;5.60;99.90;;;;;;4943463;29;20102;-85
2022/02/03 12:40:55;;;;;;;8.87;4.90;;;5.60;99.90;;;;;;4946043;28;20124;-83
2022/02/03 12:43:32;;;;;;;7.60;5.77;;;5.50;99.90;;;;;;4940400;29;20160;-86
2022/02/03 12:46:01;;;;;;;10.63;5.03;;;5.50;99.90;;;;;;4938460;28;20054;-83
2022/02/03 12:48:30;;;;;;;8.37;6.37;;;5.50;99.90;;;;;;4945212;29;20066;-83
2022/02/03 12:50:57;;;;;;;11.13;5.53;;;5.50;99.90;;;;;;4941231;29;20051;-83
2022/02/03 12:53:30;;;;;;;7.80;5.67;;;5.50;99.90;;;;;;4942837;28;20060;-83
2022/02/03 12:55:57;;;;;;;6.50;4.33;;;5.50;99.90;;;;;;4942801;29;20074;-83
2022/02/03 12:58:25;;;;;;;7.70;5.20;;;5.60;99.90;;;;;;4938725;28;20056;-85
2022/02/03 13:01:00;;;;;;;8.97;5.50;;;5.50;99.90;;;;;;4940147;29;20056;-83
2022/02/03 13:03:34;;;;;;;10.53;5.20;;;5.50;99.90;;;;;;4924521;29;20060;-85
2022/02/03 13:06:04;;;;;;;9.67;5.43;;;5.50;99.90;;;;;;4940677;29;20513;-84
2022/02/03 13:08:35;;;;;;;5.77;4.70;;;5.50;99.90;;;;;;4937080;28;20047;-81
2022/02/03 13:11:09;;;;;;;10.33;6.00;;;5.50;99.90;;;;;;4935614;29;20063;-82
2022/02/03 13:13:42;;;;;;;8.33;5.63;;;5.60;99.90;;;;;;4938353;28;20319;-83
2022/02/03 13:16:08;;;;;;;9.23;5.23;;;5.60;99.90;;;;;;4939462;28;20167;-82
2022/02/03 13:18:42;;;;;;;12.23;5.67;;;5.60;99.90;;;;;;4939058;29;20059;-83
2022/02/03 13:21:27;;;;;;;7.13;5.37;;;5.60;99.90;;;;;;4939237;28;20107;-86
2022/02/03 13:24:02;;;;;;;13.80;7.93;;;5.60;99.90;;;;;;4939127;29;20387;-84
2022/02/03 13:26:33;;;;;;;8.53;5.93;;;5.60;99.90;;;;;;4936215;28;20059;-86
2022/02/03 13:29:03;;;;;;;9.77;5.18;;;5.60;99.90;;;;;;4937218;29;20079;-84
2022/02/03 13:31:47;;;;;;;11.63;5.83;;;5.70;99.90;;;;;;4939213;28;20059;-90
2022/02/03 13:34:32;;;;;;;7.63;5.10;;;5.70;99.90;;;;;;4935925;29;20094;-81
2022/02/03 13:37:12;;;;;;;7.63;5.03;;;5.70;99.90;;;;;;4918545;29;20470;-80
2022/02/03 13:39:40;;;;;;;9.90;6.03;;;5.70;99.90;;;;;;4919460;29;20055;-81
2022/02/03 13:42:10;;;;;;;7.73;5.17;;;5.70;99.90;;;;;;4935477;29;20050;-81
2022/02/03 13:44:37;;;;;;;10.67;6.67;;;5.70;99.90;;;;;;4938860;28;20043;-79
2022/02/03 13:47:22;;;;;;;7.83;5.23;;;5.80;99.90;;;;;;4937536;29;20102;-82
2022/02/03 13:50:04;;;;;;;9.77;6.17;;;5.70;99.90;;;;;;4918503;29;20059;-79
2022/02/03 13:52:38;;;;;;;10.03;5.53;;;5.70;99.90;;;;;;4934633;29;20066;-84
2022/02/03 14:15:33;;;;;;;15.63;7.07;;;5.80;99.90;;;;;;4935405;29;20058;-84
2022/02/03 14:18:17;;;;;;;9.30;6.20;;;5.70;99.90;;;;;;4936634;29;20048;-81
2022/02/03 14:29:06;;;;;;;11.90;6.73;;;5.80;99.90;;;;;;4974908;28;20070;-84
2022/02/03 14:31:34;;;;;;;15.85;9.05;;;5.80;99.90;;;;;;4971140;28;20047;-86
2022/02/03 14:34:02;;;;;;;13.47;6.80;;;5.80;99.90;;;;;;4971427;28;20088;-82
2022/02/03 14:36:31;;;;;;;13.23;8.10;;;5.80;99.90;;;;;;4946669;29;20059;-84
2022/02/03 14:39:09;;;;;;;12.70;7.70;;;5.90;99.90;;;;;;4962041;28;20059;-83
2022/02/03 14:41:37;;;;;;;13.70;7.73;;;5.90;99.90;;;;;;4962982;28;20051;-83
2022/02/03 14:44:04;;;;;;;13.53;7.67;;;5.80;99.90;;;;;;4958300;28;20047;-83
2022/02/03 14:46:32;;;;;;;14.47;7.60;;;5.80;99.90;;;;;;4960993;28;20118;-82
2022/02/03 14:48:58;;;;;;;13.53;8.10;;;5.90;99.90;;;;;;4962918;28;20074;-87
2022/02/03 14:51:30;;;;;;;12.27;7.33;;;5.90;99.90;;;;;;4958185;28;20367;-83
2022/02/03 14:54:19;;;;;;;12.75;8.00;;;5.90;99.90;;;;;;4953329;28;20047;-80
2022/02/03 14:59:54;;;;;;;10.67;7.13;;;5.90;99.90;;;;;;4965282;28;21131;-84
2022/02/03 15:02:21;;;;;;;15.57;7.73;;;5.90;99.90;;;;;;4963471;28;20379;-83
2022/02/03 15:04:54;;;;;;;13.17;8.17;;;5.90;99.90;;;;;;4963224;28;20103;-84
2022/02/03 15:07:22;;;;;;;10.53;7.43;;;5.90;99.90;;;;;;4961255;28;20067;-88
2022/02/03 15:10:15;;;;;;;13.57;8.87;;;5.90;99.90;;;;;;4957722;28;20466;-86
2022/02/03 15:12:56;;;;;;;18.87;8.73;;;6.00;99.90;;;;;;4960329;28;20124;-85
2022/02/03 15:15:26;;;;;;;16.10;8.23;;;5.90;99.90;;;;;;4957970;28;20083;-89
2022/02/03 15:17:52;;;;;;;13.73;8.07;;;5.90;99.90;;;;;;4965898;28;20048;-84
2022/02/03 15:20:18;;;;;;;13.33;8.20;;;5.90;99.90;;;;;;4940763;28;20111;-82
2022/02/03 15:22:44;;;;;;;20.43;9.60;;;5.90;99.90;;;;;;4935327;29;20055;-83
2022/02/03 15:25:11;;;;;;;16.50;7.87;;;5.90;99.90;;;;;;4934683;29;20056;-84
2022/02/03 15:27:37;;;;;;;13.10;9.17;;;5.90;99.90;;;;;;4934735;29;20052;-83
2022/02/03 15:30:06;;;;;;;15.17;9.40;;;6.00;99.90;;;;;;4933983;29;20072;-82
2022/02/03 15:32:38;;;;;;;16.83;10.73;;;6.00;99.90;;;;;;4962266;28;20082;-83
2022/02/03 15:35:07;;;;;;;13.50;9.27;;;6.00;99.90;;;;;;4934361;29;20119;-84
2022/02/03 15:37:34;;;;;;;18.07;9.63;;;6.00;99.90;;;;;;4941834;28;20418;-81
2022/02/03 15:40:04;;;;;;;14.47;8.30;;;6.00;99.90;;;;;;4953693;28;20589;-82
2022/02/03 15:42:38;;;;;;;15.20;7.90;;;6.00;99.90;;;;;;4952432;28;20167;-82
2022/02/03 15:45:07;;;;;;;13.63;9.13;;;6.00;99.90;;;;;;4952693;28;20063;-81
2022/02/03 15:47:37;;;;;;;14.77;9.20;;;6.10;99.90;;;;;;4952936;28;20067;-82
2022/02/03 15:50:51;;;;;;;17.70;8.90;;;6.00;99.90;;;;;;4952853;28;20055;-82
2022/02/03 16:01:45;;;;;;;13.70;8.53;;;6.10;99.90;;;;;;4963148;28;20386;-84
2022/02/03 16:04:28;;;;;;;19.17;9.77;;;6.10;99.90;;;;;;4973545;28;20051;-83
2022/02/03 16:18:20;;;;;;;19.07;10.57;;;6.20;99.90;;;;;;5153341;27;20133;-82
2022/02/03 16:20:53;;;;;;;15.13;9.43;;;6.10;99.90;;;;;;5138298;27;20877;-83
2022/02/03 16:23:50;;;;;;;17.50;9.47;;;6.20;99.90;;;;;;5134559;27;20051;-83
2022/02/03 16:26:41;;;;;;;21.17;11.27;;;6.20;99.90;;;;;;5132883;27;20051;-83
2022/02/03 16:51:26;;;;;;;17.97;11.77;;;6.20;99.90;;;;;;5142321;27;20542;-82
2022/02/03 16:53:54;;;;;;;18.37;9.53;;;6.20;99.90;;;;;;5128654;28;20046;-90
2022/02/03 16:56:23;;;;;;;25.17;12.63;;;6.30;99.90;;;;;;5145270;27;20044;-81
2022/02/03 16:58:49;;;;;;;20.63;10.67;;;6.20;99.90;;;;;;5145413;27;20558;-84
2022/02/03 17:01:15;;;;;;;21.17;10.47;;;6.30;99.90;;;;;;5130445;28;20047;-81
2022/02/03 17:03:50;;;;;;;20.93;12.20;;;6.30;99.90;;;;;;5200319;22;20051;-84
2022/02/03 17:06:18;;;;;;;25.90;12.27;;;6.30;99.90;;;;;;5118093;28;20052;-85
2022/02/03 17:08:44;;;;;;;20.23;10.83;;;6.30;99.90;;;;;;5126507;28;20048;-82
2022/02/03 17:11:10;;;;;;;20.27;12.20;;;6.30;99.90;;;;;;5142349;28;20024;-88
2022/02/03 17:13:46;;;;;;;17.97;9.57;;;6.30;99.90;;;;;;5152848;27;20063;-89
2022/02/03 17:16:17;;;;;;;21.83;11.00;;;6.40;99.90;;;;;;5153304;27;20450;-89
2022/02/03 17:18:44;;;;;;;19.93;9.67;;;6.40;99.90;;;;;;5130879;28;20059;-90
2022/02/03 17:21:10;;;;;;;21.13;10.93;;;6.40;99.90;;;;;;5131740;28;20059;-89
2022/02/03 17:23:40;;;;;;;21.50;10.23;;;6.40;99.90;;;;;;5117198;28;20483;-91
2022/02/03 17:26:12;;;;;;;24.13;12.47;;;6.40;99.90;;;;;;5113528;28;20047;-89
2022/02/03 17:28:45;;;;;;;24.23;12.10;;;6.40;99.90;;;;;;5104329;28;20063;-89
2022/02/03 17:31:18;;;;;;;26.47;12.17;;;6.40;99.90;;;;;;5084411;28;20051;-90
2022/02/03 17:45:24;;;;;;;23.07;11.73;;;6.40;99.90;;;;;;5105659;28;20125;-91
2022/02/03 18:07:35;;;;;;;30.37;15.13;;;6.40;99.90;;;;;;5084798;28;20099;-89
2022/02/03 18:10:09;;;;;;;25.73;11.97;;;6.40;99.90;;;;;;5101405;28;20063;-89
2022/02/03 18:32:38;;;;;;;31.07;14.23;;;6.40;99.90;;;;;;5108027;28;20055;-90
2022/02/03 18:35:29;;;;;;;30.07;13.37;;;6.40;99.90;;;;;;5103536;28;20056;-90
2022/02/03 18:51:48;;;;;;;29.10;13.87;;;6.40;99.90;;;;;;5102384;28;20464;-88
2022/02/03 18:54:23;;;;;;;28.40;12.37;;;6.40;99.90;;;;;;5106596;28;20597;-88
2022/02/03 18:56:57;;;;;;;28.90;13.37;;;6.50;99.90;;;;;;5100069;28;20056;-89
2022/02/03 18:59:58;;;;;;;27.07;12.17;;;6.50;99.90;;;;;;5097634;28;20443;-90
2022/02/03 19:02:54;;;;;;;29.45;14.23;;;6.40;99.90;;;;;;5098464;28;20066;-88
2022/02/03 19:28:14;;;;;;;24.20;12.70;;;6.50;99.90;;;;;;5100413;28;20082;-86
2022/02/03 20:04:05;;;;;;;39.37;16.30;;;6.60;99.90;;;;;;5098881;28;20126;-89
2022/02/03 20:06:46;;;;;;;28.40;13.53;;;6.60;99.90;;;;;;5097946;28;20047;-87
2022/02/03 20:09:23;;;;;;;27.60;12.52;;;6.60;99.90;;;;;;5101930;28;20070;-88
2022/02/03 20:11:50;;;;;;;35.90;15.97;;;6.60;99.90;;;;;;5097432;28;20047;-87
2022/02/03 20:14:16;;;;;;;29.93;14.73;;;6.60;99.90;;;;;;5099817;28;20048;-78
2022/02/03 20:16:44;;;;;;;30.13;15.57;;;6.60;99.90;;;;;;5097491;28;20052;-84
2022/02/03 20:19:13;;;;;;;30.47;15.43;;;6.60;99.90;;;;;;5097473;28;20044;-90
2022/02/03 20:21:42;;;;;;;31.93;14.07;;;6.60;99.90;;;;;;5099238;28;20508;-85
2022/02/03 20:24:10;;;;;;;33.80;16.03;;;6.60;99.90;;;;;;5098577;28;20036;-83
2022/02/03 20:26:47;;;;;;;28.10;14.80;;;6.60;99.90;;;;;;5095915;28;20087;-80
2022/02/03 20:29:13;;;;;;;56.30;28.13;;;6.60;99.90;;;;;;5099572;28;20051;-87
2022/02/03 20:31:41;;;;;;;33.63;18.27;;;6.60;99.90;;;;;;5098606;28;20075;-87
2022/02/03 20:34:09;;;;;;;26.57;14.63;;;6.60;99.90;;;;;;5095438;28;20044;-89
2022/02/03 20:36:36;;;;;;;26.47;13.73;;;6.60;99.90;;;;;;5096081;28;20052;-86
2022/02/03 20:42:07;;;;;;;27.80;12.83;;;6.60;99.90;;;;;;5037822;28;20052;-85
2022/02/03 20:44:33;;;;;;;24.02;12.40;;;6.70;99.90;;;;;;5031123;28;20899;-88
2022/02/03 20:47:00;;;;;;;28.13;13.33;;;6.60;99.90;;;;;;5032168;28;20056;-87
2022/02/03 20:49:27;;;;;;;29.67;14.33;;;6.60;99.90;;;;;;5037258;28;20046;-85
2022/02/03 20:51:55;;;;;;;33.63;15.07;;;6.60;99.90;;;;;;5035776;28;20049;-85
2022/02/03 20:54:22;;;;;;;24.93;12.20;;;6.60;99.90;;;;;;5036563;28;20100;-86
2022/02/03 20:56:50;;;;;;;29.43;11.40;;;6.60;99.90;;;;;;5040097;28;20061;-86
2022/02/03 20:59:18;;;;;;;26.53;13.27;;;6.60;99.90;;;;;;5063107;28;20399;-84
2022/02/03 21:01:50;;;;;;;22.70;12.30;;;6.60;99.90;;;;;;5032883;28;20053;-85
2022/02/03 21:04:31;;;;;;;22.20;11.43;;;6.60;99.90;;;;;;5067668;28;20040;-85
2022/02/03 21:06:57;;;;;;;29.77;14.73;;;6.70;99.90;;;;;;5075271;28;20029;-85
2022/02/03 21:09:23;;;;;;;26.03;14.50;;;6.70;99.90;;;;;;5062391;28;20064;-81
2022/02/03 21:11:50;;;;;;;31.10;13.43;;;6.70;99.90;;;;;;5042226;28;20382;-87
2022/02/03 21:14:22;;;;;;;26.23;11.33;;;6.70;99.90;;;;;;5054713;28;20049;-86
2022/02/03 21:16:52;;;;;;;23.47;12.63;;;6.70;99.90;;;;;;5021770;28;20117;-80
2022/02/03 21:19:21;;;;;;;20.63;11.87;;;6.70;99.90;;;;;;5036461;28;20127;-83
2022/02/03 21:21:51;;;;;;;54.47;30.40;;;6.70;99.90;;;;;;5042459;28;20061;-83
2022/02/03 21:27:05;;;;;;;23.30;12.63;;;6.70;99.90;;;;;;5074513;28;20055;-78
2022/02/03 21:29:34;;;;;;;25.23;12.40;;;6.70;99.90;;;;;;5077707;28;20051;-86
2022/02/03 21:32:00;;;;;;;34.43;17.77;;;6.60;99.90;;;;;;5079459;28;20075;-82
2022/02/03 21:34:27;;;;;;;29.13;14.00;;;6.60;99.90;;;;;;5081049;28;20074;-88
2022/02/03 21:36:55;;;;;;;25.17;13.80;;;6.60;99.90;;;;;;5079622;28;20049;-88
2022/02/03 21:39:26;;;;;;;30.93;13.53;;;6.60;99.90;;;;;;5057251;28;20051;-88